createdAt,value
2019-05-25T00:00:04.429Z,5.70
2019-05-25T00:02:33.211Z,4.83
2019-05-25T00:05:01.978Z,4.80
2019-05-25T00:07:30.301Z,4.10
2019-05-25T00:09:58.696Z,5.10
2019-05-25T00:12:27.617Z,3.60
2019-05-25T00:14:55.920Z,3.20
2019-05-25T00:17:24.264Z,5.60
2019-05-25T00:19:52.568Z,8.30
2019-05-25T00:22:20.893Z,4.03
2019-05-25T00:24:49.656Z,4.13
2019-05-25T00:27:17.972Z,4.50
2019-05-25T00:29:46.268Z,6.43
2019-05-25T00:32:14.585Z,2.23
2019-05-25T00:34:42.890Z,5.97
2019-05-25T00:37:11.368Z,6.10
2019-05-25T00:39:39.677Z,6.67
2019-05-25T00:42:08.529Z,2.80
2019-05-25T00:44:36.836Z,4.23
2019-05-25T00:47:05.149Z,6.30
2019-05-25T00:49:33.449Z,3.67
2019-05-25T00:52:01.840Z,8.77
2019-05-25T00:54:30.216Z,3.43
2019-05-25T00:56:58.545Z,4.03
2019-05-25T00:59:26.933Z,2.67
2019-05-25T01:01:55.316Z,5.67
2019-05-25T01:04:24.174Z,3.03
2019-05-25T01:06:52.477Z,5.67
2019-05-25T01:09:20.865Z,3.03
2019-05-25T01:11:49.173Z,5.23
2019-05-25T01:14:17.735Z,4.53
2019-05-25T01:16:46.588Z,3.70
2019-05-25T01:19:14.909Z,1.40
2019-05-25T01:21:43.237Z,3.40
2019-05-25T01:24:11.622Z,2.50
2019-05-25T01:26:39.997Z,1.87
2019-05-25T01:29:08.773Z,4.13
2019-05-25T01:31:37.089Z,3.97
2019-05-25T01:34:05.396Z,2.27
2019-05-25T01:36:33.777Z,8.43
2019-05-25T01:39:02.088Z,2.17
2019-05-25T01:41:30.845Z,2.00
2019-05-25T01:43:59.617Z,3.80
2019-05-25T01:46:27.916Z,3.20
2019-05-25T01:48:56.223Z,4.13
2019-05-25T01:51:24.993Z,2.43
2019-05-25T01:53:53.754Z,1.90
2019-05-25T01:56:22.075Z,1.27
2019-05-25T01:58:50.444Z,6.97
2019-05-25T02:01:19.213Z,1.63
2019-05-25T02:03:47.513Z,3.03
2019-05-25T02:06:16.416Z,2.97
2019-05-25T02:08:44.729Z,4.00
2019-05-25T02:11:13.503Z,3.03
2019-05-25T02:13:42.253Z,1.87
2019-05-25T02:16:10.655Z,2.87
2019-05-25T02:18:39.032Z,3.77
2019-05-25T02:21:07.814Z,2.30
2019-05-25T02:23:36.642Z,4.13
2019-05-25T02:26:05.020Z,7.50
2019-05-25T02:28:33.428Z,1.37
2019-05-25T02:31:01.732Z,1.97
2019-05-25T02:33:30.492Z,4.47
2019-05-25T02:35:59.257Z,4.50
2019-05-25T02:38:28.025Z,2.83
2019-05-25T02:40:56.885Z,1.70
2019-05-25T02:43:25.197Z,2.50
2019-05-25T02:45:53.592Z,4.47
2019-05-25T02:48:22.444Z,2.00
2019-05-25T02:50:53.127Z,8.83
2019-05-25T02:53:22.289Z,3.23
2019-05-25T02:55:51.088Z,8.77
2019-05-25T02:58:19.865Z,1.43
2019-05-25T03:00:48.794Z,1.30
2019-05-25T03:03:17.636Z,5.83
2019-05-25T03:05:47.753Z,3.43
2019-05-25T03:08:16.594Z,6.80
2019-05-25T03:10:45.361Z,1.70
2019-05-25T03:13:14.064Z,1.27
2019-05-25T03:15:42.909Z,1.97
2019-05-25T03:18:11.745Z,1.63
2019-05-25T03:20:40.648Z,4.70
2019-05-25T03:23:08.980Z,2.60
2019-05-25T03:25:49.233Z,3.67
2019-05-25T03:28:07.868Z,1.93
2019-05-25T03:30:37.639Z,3.47
2019-05-25T03:33:06.498Z,2.67
2019-05-25T03:35:34.951Z,1.63
2019-05-25T03:38:03.862Z,2.27
2019-05-25T03:40:32.697Z,1.53
2019-05-25T03:43:01.724Z,1.87
2019-05-25T03:45:30.641Z,3.47
2019-05-25T03:47:59.494Z,2.37
2019-05-25T03:50:27.813Z,2.97
2019-05-25T03:52:56.676Z,4.47
2019-05-25T03:55:25.464Z,3.43
2019-05-25T03:57:54.249Z,4.63
2019-05-25T04:00:33.577Z,7.63
2019-05-25T04:03:02.445Z,2.50
2019-05-25T04:05:30.849Z,1.67
2019-05-25T04:07:59.787Z,2.60
2019-05-25T04:10:28.972Z,1.77
2019-05-25T04:12:57.353Z,16.87
2019-05-25T04:15:26.222Z,3.57
2019-05-25T04:17:54.540Z,5.03
2019-05-25T04:20:23.402Z,1.93
2019-05-25T04:22:52.267Z,7.03
2019-05-25T04:25:21.094Z,2.73
2019-05-25T04:27:49.415Z,2.60
2019-05-25T04:30:17.813Z,4.43
2019-05-25T04:32:46.582Z,1.97
2019-05-25T04:35:15.900Z,2.57
2019-05-25T04:37:44.703Z,5.30
2019-05-25T04:40:13.649Z,3.57
2019-05-25T04:42:42.419Z,5.43
2019-05-25T04:45:11.453Z,1.77
2019-05-25T04:47:40.246Z,2.80
2019-05-25T04:50:09.309Z,3.13
2019-05-25T04:52:40.885Z,4.87
2019-05-25T04:55:09.459Z,4.27
2019-05-25T04:57:38.217Z,3.40
2019-05-25T05:00:07.441Z,3.57
2019-05-25T05:02:36.345Z,9.13
2019-05-25T05:05:05.865Z,12.57
2019-05-25T05:07:34.248Z,8.20
2019-05-25T05:10:03.543Z,10.70
2019-05-25T05:12:32.349Z,7.50
2019-05-25T05:15:01.231Z,6.43
2019-05-25T05:17:29.996Z,7.10
2019-05-25T05:19:59.017Z,6.23
2019-05-25T05:22:27.789Z,5.77
2019-05-25T05:24:56.605Z,3.90
2019-05-25T05:27:24.924Z,10.27
2019-05-25T05:29:53.729Z,8.93
2019-05-25T05:32:27.603Z,10.63
2019-05-25T05:34:53.430Z,7.23
2019-05-25T05:37:24.383Z,12.47
2019-05-25T05:39:53.804Z,8.17
2019-05-25T05:42:24.937Z,6.40
2019-05-25T05:44:55.904Z,6.43
2019-05-25T05:47:26.071Z,10.63
2019-05-25T05:49:55.964Z,8.03
2019-05-25T05:52:27.277Z,9.53
2019-05-25T05:54:57.141Z,11.03
2019-05-25T05:57:26.320Z,7.97
2019-05-25T05:59:54.953Z,5.30
2019-05-25T06:02:23.273Z,13.43
2019-05-25T06:04:52.143Z,7.80
2019-05-25T06:07:21.574Z,14.87
2019-05-25T06:09:50.361Z,10.17
2019-05-25T06:12:19.231Z,7.90
2019-05-25T06:14:47.989Z,10.37
2019-05-25T06:17:16.382Z,12.83
2019-05-25T06:19:44.797Z,13.13
2019-05-25T06:22:13.560Z,8.20
2019-05-25T06:24:41.881Z,9.60
2019-05-25T06:27:10.275Z,8.67
2019-05-25T06:29:39.066Z,11.53
2019-05-25T06:32:07.916Z,8.13
2019-05-25T06:34:36.665Z,8.07
2019-05-25T06:37:05.572Z,10.97
2019-05-25T06:39:34.362Z,7.23
2019-05-25T06:42:03.247Z,16.50
2019-05-25T06:44:31.581Z,12.50
2019-05-25T06:47:00.353Z,12.87
2019-05-25T06:49:28.724Z,11.13
2019-05-25T06:51:57.515Z,12.30
2019-05-25T06:54:25.808Z,14.10
2019-05-25T06:56:54.633Z,12.00
2019-05-25T06:59:23.405Z,12.33
2019-05-25T07:01:52.510Z,10.63
2019-05-25T07:04:21.299Z,8.93
2019-05-25T07:06:50.429Z,9.10
2019-05-25T07:09:21.241Z,8.37
2019-05-25T07:11:50.080Z,7.63
2019-05-25T07:14:18.484Z,12.13
2019-05-25T07:16:49.614Z,9.97
2019-05-25T07:19:20.540Z,6.47
2019-05-25T07:21:49.453Z,12.23
2019-05-25T07:24:18.239Z,6.60
2019-05-25T07:26:47.020Z,7.07
2019-05-25T07:29:15.844Z,14.03
2019-05-25T07:31:44.245Z,9.17
2019-05-25T07:34:13.259Z,7.07
2019-05-25T07:36:42.076Z,7.23
2019-05-25T07:39:10.913Z,7.43
2019-05-25T07:41:39.786Z,7.03
2019-05-25T07:44:08.618Z,7.47
2019-05-25T07:46:37.463Z,7.17
2019-05-25T07:49:06.232Z,9.43
2019-05-25T07:51:35.482Z,8.80
2019-05-25T07:54:04.408Z,8.13
2019-05-25T07:56:33.486Z,9.23
2019-05-25T07:59:02.337Z,7.23
2019-05-25T08:01:31.168Z,7.43
2019-05-25T08:03:59.951Z,10.00
2019-05-25T08:06:30.574Z,8.50
2019-05-25T08:08:59.461Z,9.57
2019-05-25T08:11:28.311Z,9.93
2019-05-25T08:13:57.350Z,12.80
2019-05-25T08:16:26.127Z,9.20
2019-05-25T08:18:54.905Z,11.33
2019-05-25T08:21:23.665Z,11.60
2019-05-25T08:23:52.429Z,11.20
2019-05-25T08:26:21.377Z,17.23
2019-05-25T08:28:50.212Z,21.87
2019-05-25T08:31:18.976Z,19.03
2019-05-25T08:33:47.750Z,12.33
2019-05-25T08:36:16.588Z,15.07
2019-05-25T08:38:45.357Z,15.10
2019-05-25T08:41:14.125Z,14.60
2019-05-25T08:43:42.898Z,34.23
2019-05-25T08:46:11.284Z,19.90
2019-05-25T08:48:39.607Z,20.07
2019-05-25T08:51:08.368Z,18.27
2019-05-25T08:53:42.006Z,20.20
2019-05-25T08:56:07.309Z,18.83
2019-05-25T08:58:48.107Z,17.20
2019-05-25T09:01:06.704Z,23.00
2019-05-25T09:03:35.505Z,24.17
2019-05-25T09:06:03.876Z,14.73
2019-05-25T09:08:32.644Z,18.77
2019-05-25T09:11:01.665Z,18.60
2019-05-25T09:13:30.420Z,18.90
2019-05-25T09:15:59.197Z,21.30
2019-05-25T09:18:28.305Z,20.50
2019-05-25T09:20:57.077Z,20.17
2019-05-25T09:23:26.892Z,21.73
2019-05-25T09:25:55.212Z,17.70
2019-05-25T09:28:33.141Z,18.43
2019-05-25T09:31:01.494Z,18.63
2019-05-25T09:33:30.263Z,21.27
2019-05-25T09:35:59.342Z,21.03
2019-05-25T09:38:30.005Z,15.27
2019-05-25T09:40:58.349Z,18.50
2019-05-25T09:43:28.218Z,19.97
2019-05-25T09:45:56.989Z,19.07
2019-05-25T09:48:25.364Z,21.47
2019-05-25T09:50:54.389Z,17.10
2019-05-25T09:53:23.224Z,16.27
2019-05-25T09:55:52.061Z,18.20
2019-05-25T09:58:20.360Z,16.63
2019-05-25T10:00:49.125Z,19.10
2019-05-25T10:03:17.957Z,14.57
2019-05-25T10:05:46.873Z,15.17
2019-05-25T10:08:15.881Z,14.87
2019-05-25T10:10:44.720Z,14.43
2019-05-25T10:13:13.094Z,20.23
2019-05-25T10:15:41.942Z,19.13
2019-05-25T10:18:10.712Z,20.40
2019-05-25T10:20:39.497Z,19.33
2019-05-25T10:23:08.266Z,21.67
2019-05-25T10:25:37.234Z,18.90
2019-05-25T10:28:06.193Z,20.10
2019-05-25T10:30:35.367Z,17.00
2019-05-25T10:33:04.320Z,17.63
2019-05-25T10:35:33.205Z,22.40
2019-05-25T10:38:01.526Z,18.73
2019-05-25T10:40:30.346Z,20.53
2019-05-25T10:42:59.177Z,12.83
2019-05-25T10:45:28.031Z,17.40
2019-05-25T10:47:56.861Z,16.30
2019-05-25T10:50:25.864Z,17.10
2019-05-25T10:52:54.874Z,22.00
2019-05-25T10:55:23.752Z,19.63
2019-05-25T10:57:52.493Z,17.47
2019-05-25T11:00:21.507Z,16.13
2019-05-25T11:02:49.974Z,19.07
2019-05-25T11:05:19.378Z,17.40
2019-05-25T11:07:48.454Z,20.90
2019-05-25T11:10:17.658Z,16.47
2019-05-25T11:12:45.977Z,21.57
2019-05-25T11:15:15.137Z,19.80
2019-05-25T11:17:43.927Z,19.30
2019-05-25T11:20:14.436Z,23.37
2019-05-25T11:22:42.740Z,15.60
2019-05-25T11:25:11.893Z,19.83
2019-05-25T11:27:40.776Z,19.63
2019-05-25T11:30:10.466Z,17.70
2019-05-25T11:32:39.497Z,15.17
2019-05-25T11:35:09.063Z,18.77
2019-05-25T11:37:37.922Z,16.67
2019-05-25T11:40:07.340Z,12.63
2019-05-25T11:42:36.084Z,13.80
2019-05-25T11:45:05.637Z,25.60
2019-05-25T11:47:34.125Z,15.50
2019-05-25T11:50:03.002Z,13.00
2019-05-25T11:52:31.910Z,14.87
2019-05-25T11:55:00.685Z,15.40
2019-05-25T11:57:29.446Z,15.37
2019-05-25T11:59:58.208Z,14.37
2019-05-25T12:02:27.233Z,11.07
2019-05-25T12:04:56.005Z,13.50
2019-05-25T12:07:24.777Z,14.10
2019-05-25T12:09:53.575Z,15.83
2019-05-25T12:12:22.334Z,16.47
2019-05-25T12:14:51.169Z,16.83
2019-05-25T12:17:19.528Z,14.17
2019-05-25T12:19:48.293Z,18.83
2019-05-25T12:22:17.324Z,12.57
2019-05-25T12:24:46.178Z,13.90
2019-05-25T12:27:15.017Z,15.87
2019-05-25T12:29:44.037Z,11.93
2019-05-25T12:32:12.941Z,18.40
2019-05-25T12:34:41.801Z,15.23
2019-05-25T12:37:10.584Z,14.97
2019-05-25T12:39:39.353Z,15.50
2019-05-25T12:42:08.181Z,17.50
2019-05-25T12:44:37.152Z,14.10
2019-05-25T12:47:06.059Z,15.80
2019-05-25T12:49:49.526Z,18.17
2019-05-25T12:52:05.581Z,22.97
2019-05-25T12:54:34.361Z,18.47
2019-05-25T12:57:03.237Z,19.80
2019-05-25T12:59:32.082Z,15.73
2019-05-25T13:02:01.357Z,20.33
2019-05-25T13:04:30.147Z,18.63
2019-05-25T13:06:58.997Z,19.73
2019-05-25T13:09:27.797Z,19.20
2019-05-25T13:11:56.560Z,16.90
2019-05-25T13:14:25.384Z,18.70
2019-05-25T13:16:54.147Z,19.57
2019-05-25T13:19:23.157Z,22.90
2019-05-25T13:21:51.916Z,17.60
2019-05-25T13:24:21.014Z,16.63
2019-05-25T13:26:49.909Z,18.77
2019-05-25T13:29:18.669Z,21.07
2019-05-25T13:31:46.977Z,15.00
2019-05-25T13:34:18.523Z,15.73
2019-05-25T13:36:47.278Z,15.53
2019-05-25T13:39:16.040Z,13.83
2019-05-25T13:41:44.841Z,18.67
2019-05-25T13:44:13.592Z,14.03
2019-05-25T13:46:42.430Z,17.53
2019-05-25T13:49:11.211Z,18.53
2019-05-25T13:51:39.960Z,17.33
2019-05-25T13:54:08.801Z,15.23
2019-05-25T13:56:37.585Z,16.90
2019-05-25T13:59:06.421Z,20.23
2019-05-25T14:01:35.385Z,15.90
2019-05-25T14:04:03.756Z,18.43
2019-05-25T14:06:32.618Z,11.67
2019-05-25T14:09:01.373Z,16.17
2019-05-25T14:11:29.762Z,12.40
2019-05-25T14:13:58.532Z,12.13
2019-05-25T14:16:26.860Z,13.17
2019-05-25T14:18:55.858Z,14.13
2019-05-25T14:21:24.628Z,13.23
2019-05-25T14:23:53.416Z,15.37
2019-05-25T14:26:22.253Z,14.73
2019-05-25T14:28:51.022Z,10.27
2019-05-25T14:31:19.784Z,11.97
2019-05-25T14:33:48.744Z,10.13
2019-05-25T14:36:17.592Z,11.83
2019-05-25T14:38:46.428Z,8.00
2019-05-25T14:41:15.293Z,9.43
2019-05-25T14:43:44.061Z,11.30
2019-05-25T14:46:26.925Z,10.30
2019-05-25T14:48:43.421Z,7.87
2019-05-25T14:51:12.196Z,7.57
2019-05-25T14:53:41.225Z,8.90
2019-05-25T14:56:09.553Z,5.50
2019-05-25T14:58:37.912Z,7.27
2019-05-25T15:01:06.548Z,6.60
2019-05-25T15:03:35.324Z,6.90
2019-05-25T15:06:04.510Z,8.77
2019-05-25T15:08:33.298Z,12.83
2019-05-25T15:11:01.605Z,6.80
2019-05-25T15:13:30.573Z,11.77
2019-05-25T15:15:59.404Z,8.07
2019-05-25T15:18:28.245Z,5.70
2019-05-25T15:20:56.582Z,5.97
2019-05-25T15:23:25.433Z,5.63
2019-05-25T15:25:54.452Z,6.73
2019-05-25T15:28:23.309Z,5.70
2019-05-25T15:30:52.184Z,5.87
2019-05-25T15:33:20.973Z,4.07
2019-05-25T15:35:49.846Z,4.77
2019-05-25T15:38:18.697Z,3.23
2019-05-25T15:40:47.044Z,4.63
2019-05-25T15:43:15.829Z,11.73
2019-05-25T15:45:44.596Z,4.33
2019-05-25T15:48:13.846Z,4.13
2019-05-25T15:50:43.106Z,6.07
2019-05-25T15:53:12.286Z,4.37
2019-05-25T15:55:41.616Z,3.93
2019-05-25T15:58:10.905Z,7.83
2019-05-25T16:00:44.295Z,5.43
2019-05-25T16:03:13.531Z,4.63
2019-05-25T16:05:47.575Z,4.20
2019-05-25T16:08:17.099Z,7.73
2019-05-25T16:10:46.732Z,3.07
2019-05-25T16:13:15.327Z,6.73
2019-05-25T16:15:44.394Z,6.53
2019-05-25T16:18:14.014Z,5.53
2019-05-25T16:20:42.732Z,3.43
2019-05-25T16:23:12.024Z,6.93
2019-05-25T16:25:41.236Z,5.30
2019-05-25T16:28:09.881Z,3.70
2019-05-25T16:30:39.100Z,2.33
2019-05-25T16:33:12.536Z,6.87
2019-05-25T16:35:39.490Z,3.63
2019-05-25T16:38:08.919Z,8.70
2019-05-25T16:40:38.147Z,4.93
2019-05-25T16:43:07.327Z,3.23
2019-05-25T16:45:35.910Z,6.40
2019-05-25T16:48:04.766Z,2.00
2019-05-25T16:50:33.462Z,3.10
2019-05-25T16:53:02.067Z,4.50
2019-05-25T16:55:31.100Z,3.63
2019-05-25T16:58:00.027Z,5.40
2019-05-25T17:00:28.963Z,4.17
2019-05-25T17:02:57.964Z,4.07
2019-05-25T17:05:26.756Z,8.23
2019-05-25T17:07:55.317Z,3.63
2019-05-25T17:10:23.945Z,5.37
2019-05-25T17:12:53.130Z,6.27
2019-05-25T17:15:22.616Z,4.60
2019-05-25T17:17:51.890Z,6.57
2019-05-25T17:20:21.449Z,4.93
2019-05-25T17:22:54.133Z,5.17
2019-05-25T17:25:23.413Z,3.77
2019-05-25T17:27:53.879Z,12.40
2019-05-25T17:30:37.409Z,7.17
2019-05-25T17:33:06.242Z,3.47
2019-05-25T17:35:35.021Z,5.03
2019-05-25T17:38:04.007Z,5.80
2019-05-25T17:40:32.877Z,2.60
2019-05-25T17:43:01.699Z,7.10
2019-05-25T17:45:30.582Z,4.47
2019-05-25T17:47:59.621Z,3.53
2019-05-25T17:50:28.552Z,5.20
2019-05-25T17:52:57.488Z,6.43
2019-05-25T17:55:26.558Z,6.27
2019-05-25T17:57:55.329Z,3.67
2019-05-25T18:00:38.828Z,8.00
2019-05-25T18:03:07.793Z,6.10
2019-05-25T18:05:36.705Z,4.67
2019-05-25T18:08:06.925Z,6.13
2019-05-25T18:10:51.244Z,3.23
2019-05-25T18:13:06.662Z,2.87
2019-05-25T18:15:35.708Z,6.07
2019-05-25T18:18:05.461Z,4.30
2019-05-25T18:20:34.399Z,4.83
2019-05-25T18:23:03.217Z,7.73
2019-05-25T18:25:31.749Z,3.07
2019-05-25T18:28:00.574Z,6.77
2019-05-25T18:30:29.580Z,2.40
2019-05-25T18:32:58.442Z,1.93
2019-05-25T18:35:27.381Z,12.77
2019-05-25T18:37:56.246Z,4.30
2019-05-25T18:40:25.218Z,3.93
2019-05-25T18:42:54.268Z,8.53
2019-05-25T18:45:23.507Z,4.83
2019-05-25T18:47:52.345Z,5.57
2019-05-25T18:50:22.377Z,6.47
2019-05-25T18:52:50.715Z,4.50
2019-05-25T18:55:19.742Z,3.33
2019-05-25T18:57:48.946Z,4.07
2019-05-25T19:00:19.737Z,3.40
2019-05-25T19:02:48.151Z,7.00
2019-05-25T19:05:17.203Z,3.03
2019-05-25T19:07:45.998Z,3.83
2019-05-25T19:10:14.387Z,5.50
2019-05-25T19:12:43.229Z,7.73
2019-05-25T19:15:12.005Z,2.17
2019-05-25T19:17:40.582Z,7.10
2019-05-25T19:20:10.783Z,3.27
2019-05-25T19:22:39.560Z,4.73
2019-05-25T19:25:08.082Z,2.93
2019-05-25T19:27:37.037Z,5.00
2019-05-25T19:30:05.552Z,5.33
2019-05-25T19:32:34.501Z,8.50
2019-05-25T19:35:06.612Z,3.10
2019-05-25T19:37:35.557Z,6.47
2019-05-25T19:40:08.923Z,4.17
2019-05-25T19:42:35.122Z,6.60
2019-05-25T19:45:04.207Z,7.90
2019-05-25T19:47:33.004Z,6.17
2019-05-25T19:50:04.794Z,2.73
2019-05-25T19:52:31.930Z,6.80
2019-05-25T19:55:00.768Z,4.30
2019-05-25T19:57:29.636Z,6.93
2019-05-25T20:00:05.211Z,2.97
2019-05-25T20:02:33.986Z,3.60
2019-05-25T20:05:15.741Z,3.77
2019-05-25T20:07:32.881Z,3.60
2019-05-25T20:10:01.741Z,4.47
2019-05-25T20:12:30.094Z,11.87
2019-05-25T20:14:58.854Z,8.70
2019-05-25T20:17:27.625Z,6.17
2019-05-25T20:19:56.396Z,3.87
2019-05-25T20:22:25.173Z,5.43
2019-05-25T20:24:54.039Z,4.90
2019-05-25T20:27:22.918Z,6.53
2019-05-25T20:29:51.717Z,4.33
2019-05-25T20:32:20.798Z,8.93
2019-05-25T20:34:49.689Z,6.33
2019-05-25T20:37:18.585Z,4.43
2019-05-25T20:39:49.824Z,3.20
2019-05-25T20:42:17.073Z,5.50
2019-05-25T20:44:45.982Z,11.60
2019-05-25T20:47:14.294Z,5.60
2019-05-25T20:49:42.702Z,6.43
2019-05-25T20:52:11.497Z,3.70
2019-05-25T20:54:40.263Z,10.63
2019-05-25T20:57:08.581Z,5.93
2019-05-25T20:59:36.998Z,9.17
2019-05-25T21:02:05.908Z,6.93
2019-05-25T21:04:34.695Z,10.50
2019-05-25T21:07:02.996Z,5.87
2019-05-25T21:09:31.338Z,8.60
2019-05-25T21:12:00.106Z,5.13
2019-05-25T21:14:28.902Z,4.97
2019-05-25T21:16:57.204Z,5.30
2019-05-25T21:19:25.520Z,5.07
2019-05-25T21:21:54.264Z,4.43
2019-05-25T21:24:23.105Z,5.90
2019-05-25T21:26:51.440Z,7.10
2019-05-25T21:29:19.840Z,7.73
2019-05-25T21:31:48.597Z,7.80
2019-05-25T21:34:17.368Z,5.07
2019-05-25T21:36:45.680Z,4.60
2019-05-25T21:39:13.989Z,3.40
2019-05-25T21:41:42.361Z,9.80
2019-05-25T21:44:11.121Z,6.03
2019-05-25T21:46:39.870Z,8.23
2019-05-25T21:49:09.389Z,6.83
2019-05-25T21:51:37.699Z,3.93
2019-05-25T21:54:06.021Z,14.83
2019-05-25T21:56:34.324Z,5.57
2019-05-25T21:59:02.891Z,8.77
2019-05-25T22:01:31.412Z,6.73
2019-05-25T22:03:59.721Z,10.27
2019-05-25T22:06:28.037Z,7.90
2019-05-25T22:08:56.323Z,7.87
2019-05-25T22:11:24.709Z,6.73
2019-05-25T22:13:53.025Z,10.43
2019-05-25T22:16:21.429Z,8.73
2019-05-25T22:18:50.422Z,11.53
2019-05-25T22:21:18.804Z,10.53
2019-05-25T22:23:47.117Z,5.33
2019-05-25T22:26:15.429Z,10.97
2019-05-25T22:28:45.348Z,11.40
2019-05-25T22:31:14.472Z,6.17
2019-05-25T22:33:42.790Z,8.63
2019-05-25T22:36:11.237Z,4.90
2019-05-25T22:38:39.548Z,5.80
2019-05-25T22:41:07.920Z,8.37
2019-05-25T22:43:36.679Z,6.57
2019-05-25T22:46:05.053Z,9.40
2019-05-25T22:48:34.056Z,8.73
2019-05-25T22:51:02.445Z,7.47
2019-05-25T22:53:31.333Z,5.83
2019-05-25T22:55:59.685Z,6.70
2019-05-25T22:58:28.011Z,6.50
2019-05-25T23:00:56.323Z,9.13
2019-05-25T23:03:25.098Z,6.70
2019-05-25T23:05:53.418Z,8.93
2019-05-25T23:08:21.721Z,8.27
2019-05-25T23:10:50.486Z,7.90
2019-05-25T23:13:18.789Z,8.57
2019-05-25T23:15:47.565Z,6.27
2019-05-25T23:18:15.893Z,10.20
2019-05-25T23:20:44.260Z,8.70
2019-05-25T23:23:12.648Z,8.97
2019-05-25T23:25:40.952Z,10.63
2019-05-25T23:28:09.734Z,5.70
2019-05-25T23:30:38.721Z,9.33
2019-05-25T23:33:07.092Z,8.77
2019-05-25T23:35:35.852Z,8.33
2019-05-25T23:38:04.249Z,6.30
2019-05-25T23:40:33.026Z,6.30
2019-05-25T23:43:01.355Z,11.13
2019-05-25T23:45:29.649Z,6.13
2019-05-25T23:47:58.429Z,13.00
2019-05-25T23:50:27.168Z,7.17
2019-05-25T23:52:55.502Z,9.07
2019-05-25T23:55:23.813Z,7.77
2019-05-25T23:57:52.755Z,8.07
